Bookmark and Share
Track history (hours):
 

MSC Fortunate

Last reported at 2014-Apr-24 13:28 UTC. Time now 2014-Apr-24 13:36 UTC.
Position N 31°50' E 034°39'.

Length 275 m; draft 13.5 m.

Type: Ship. MMSI: 356708000.

NotesDate/timePositionNaut miles runAvg speedWind from/ knotsBaromVisibWave heightAir tempDewpointWater temp
2014-Apr-24 13:28N 31°50' E 034°39'0 0.0
2014-Apr-24 12:28N 31°50' E 034°39'0 0.0
2014-Apr-24 11:28N 31°50' E 034°39'0 0.0
2014-Apr-24 10:25N 31°50' E 034°39'0 0.0
2014-Apr-24 09:31N 31°50' E 034°39'0 0.0
2014-Apr-24 07:29N 31°50' E 034°39'0 0.0
2014-Apr-24 06:28N 31°50' E 034°39'0 0.0
2014-Apr-24 04:04N 31°50' E 034°39'0 0.0
2014-Apr-23 22:31N 31°50' E 034°39'0 0.0
2014-Apr-23 21:31N 31°50' E 034°39'0 0.0
2014-Apr-23 20:28N 31°50' E 034°39'0 0.0
2014-Apr-23 19:11N 31°50' E 034°39'0 0.0
2014-Apr-23 18:29N 31°50' E 034°39'0 0.0
2014-Apr-23 17:32N 31°50' E 034°39'0 0.0
2014-Apr-23 16:29N 31°50' E 034°39'0 0.0
2014-Apr-23 14:20N 31°50' E 034°39'0 0.0
2014-Apr-23 13:32N 31°50' E 034°39'0 0.0
2014-Apr-23 12:29N 31°50' E 034°39'2 1.8
2014-Apr-23 11:26N 31°51' E 034°37'4 4.0
2014-Apr-23 10:32N 31°49' E 034°34'0 0.0
2014-Apr-23 01:21N 31°48' E 034°34'0 0.0
2014-Apr-22 17:30N 31°48' E 034°34'0 0.0
2014-Apr-22 16:33N 31°48' E 034°34'0 0.0
2014-Apr-22 15:33N 31°48' E 034°34'0 0.0
2014-Apr-22 14:12N 31°48' E 034°34'0 0.0
2014-Apr-22 13:33N 31°48' E 034°34'13313.1
2014-Apr-22 03:21N 32°32' E 032°05'2218.6
2014-Apr-22 02:12N 32°37' E 031°41'5319.1
2014-Apr-21 23:26N 32°51' E 030°40'1618.9
2014-Apr-21 22:33N 32°56' E 030°21'1918.9
2014-Apr-21 21:33N 33°01' E 029°60'1919.0
2014-Apr-21 20:34N 33°06' E 029°38'1919.1
2014-Apr-21 19:33N 33°11' E 029°16'1918.6
2014-Apr-21 18:33N 33°16' E 028°54'34118.8
2014-Apr-21 00:24N 34°47' E 022°17'1718.5
2014-Apr-20 23:30N 34°51' E 021°58'1718.4
2014-Apr-20 22:33N 34°55' E 021°37'1918.5
2014-Apr-20 21:31N 35°01' E 021°15'1918.4
2014-Apr-20 20:30N 35°06' E 020°53'32018.7
2014-Apr-20 03:22N 36°31' E 014°33'1518.9
2014-Apr-20 02:34N 36°35' E 014°14'1918.8
2014-Apr-20 01:34N 36°40' E 013°52'2319.1
2014-Apr-20 00:22N 36°46' E 013°24'1719.2
2014-Apr-19 23:28N 36°50' E 013°03'1718.7
2014-Apr-19 22:33N 36°55' E 012°43'2318.7
2014-Apr-19 21:18N 37°01' E 012°15'1618.5
2014-Apr-19 20:27N 37°06' E 011°56'1718.4
2014-Apr-19 19:33N 37°12' E 011°37'1918.7
2014-Apr-19 18:34N 37°19' E 011°15'1918.6
2014-Apr-19 17:34N 37°25' E 010°53'1918.9
2014-Apr-19 16:34N 37°29' E 010°30'1919.2
2014-Apr-19 15:34N 37°33' E 010°06'1918.4
2014-Apr-19 14:33N 37°31' E 009°43'1918.9
2014-Apr-19 13:33N 37°26' E 009°20'2219.5
2014-Apr-19 12:25N 37°21' E 008°52'21019.2
2014-Apr-19 01:26N 37°09' E 004°29'3719.3
2014-Apr-18 23:29N 37°06' E 003°42'3819.8
2014-Apr-18 21:33N 37°01' E 002°54'1919.4
2014-Apr-18 20:34N 36°57' E 002°31'2019.7
2014-Apr-18 19:33N 36°54' E 002°06'2320.1
2014-Apr-18 18:24N 36°51' E 001°38'1619.3
2014-Apr-18 17:33N 36°48' E 001°17'3919.2
2014-Apr-18 15:30N 36°41' E 000°29'2219.1
2014-Apr-18 14:19N 36°37' E 000°02'12 2.8
2014-Apr-18 10:03N 36°35' W 000°13'0 0.1
2014-Apr-18 09:31N 36°35' W 000°13'0 0.2
2014-Apr-18 08:26N 36°35' W 000°13'2 1.9
2014-Apr-18 07:33N 36°35' W 000°15'7818.6
2014-Apr-18 03:21N 36°25' W 001°52'1718.5
2014-Apr-18 02:27N 36°22' W 002°12'13418.3
2014-Apr-17 19:06N 36°01' W 004°57'1019.4
2014-Apr-17 18:33N 35°60' W 005°09'2420.4
2014-Apr-17 17:23N 35°55' W 005°38'1820.5
2014-Apr-17 16:30N 35°55' W 006°01'7518.8
2014-Apr-17 12:30N 36°11' W 007°31'1818.7
2014-Apr-17 11:33N 36°16' W 007°52'2618.4
2014-Apr-17 10:09N 36°23' W 008°23'1218.3
2014-Apr-17 09:29N 36°26' W 008°38'1718.6
2014-Apr-17 08:33N 36°30' W 008°59'5117.0
2014-Apr-17 05:33N 37°10' W 009°39'1918.6
2014-Apr-17 04:31N 37°29' W 009°43'1919.0
2014-Apr-17 03:31N 37°48' W 009°49'1818.7
2014-Apr-17 02:32N 38°05' W 009°55'2718.9
2014-Apr-17 01:07N 38°32' W 010°02'  
2014-Apr-14 19:33N 49°50' W 001°14'1312.9
2014-Apr-14 18:33N 49°45' W 000°56'1313.5
2014-Apr-14 17:34N 49°39' W 000°37'1514.7
2014-Apr-14 16:33N 49°34' W 000°16'1312.9
2014-Apr-14 15:34N 49°30' E 000°03'4 3.8
2014-Apr-14 14:33N 49°28' E 000°08'0 0.0
2014-Apr-14 13:33N 49°28' E 000°08'  

Dump ship's entire track history

sailing weather and tide predictions

MSC Fortunate — 3FLG6 — position and weather